createdAt,value
2022-08-14T00:02:03.749Z,9.27
2022-08-14T00:04:42.366Z,9.45
2022-08-14T00:07:14.102Z,9.77
2022-08-14T00:28:15.254Z,10.02
2022-08-14T00:30:46.845Z,10.18
2022-08-14T00:33:16.260Z,9.98
2022-08-14T00:36:39.174Z,10.10
2022-08-14T00:38:34.787Z,10.32
2022-08-14T00:41:06.111Z,10.02
2022-08-14T00:43:37.813Z,10.27
2022-08-14T00:46:30.123Z,10.20
2022-08-14T00:48:58.695Z,10.02
2022-08-14T00:51:37.954Z,10.23
2022-08-14T00:54:16.938Z,10.15
2022-08-14T00:56:55.108Z,10.65
2022-08-14T00:59:25.846Z,9.82
2022-08-14T01:01:58.195Z,10.77
2022-08-14T01:04:51.822Z,10.52
2022-08-14T01:07:21.365Z,10.50
2022-08-14T01:10:01.911Z,11.15
2022-08-14T01:12:30.457Z,11.10
2022-08-14T01:15:03.018Z,10.65
2022-08-14T01:17:52.385Z,11.00
2022-08-14T01:20:41.032Z,11.13
2022-08-14T01:23:16.409Z,10.40
2022-08-14T01:25:49.086Z,11.02
2022-08-14T01:28:34.281Z,11.20
2022-08-14T01:31:15.845Z,11.55
2022-08-14T01:33:59.691Z,11.90
2022-08-14T01:36:38.989Z,10.70
2022-08-14T01:39:15.884Z,11.32
2022-08-14T01:42:01.017Z,11.60
2022-08-14T01:44:34.049Z,10.95
2022-08-14T01:47:21.900Z,11.15
2022-08-14T01:49:59.861Z,10.98
2022-08-14T01:52:59.384Z,10.63
2022-08-14T01:55:22.424Z,10.98
2022-08-14T01:58:01.739Z,11.57
2022-08-14T02:00:39.117Z,11.50
2022-08-14T02:03:06.739Z,11.23
2022-08-14T02:08:09.392Z,11.15
2022-08-14T02:13:19.578Z,11.05
2022-08-14T02:54:07.307Z,13.63
2022-08-14T02:57:15.334Z,13.20
2022-08-14T02:59:34.237Z,13.27
2022-08-14T03:02:05.640Z,13.52
2022-08-14T03:07:07.434Z,12.45
2022-08-14T03:09:41.806Z,12.90
2022-08-14T03:12:30.791Z,12.45
2022-08-14T03:15:03.258Z,12.13
2022-08-14T03:17:41.040Z,12.70
2022-08-14T03:20:22.547Z,12.32
2022-08-14T03:22:49.867Z,12.35
2022-08-14T03:25:18.277Z,13.43
2022-08-14T03:27:48.622Z,13.25
2022-08-14T03:30:39.177Z,13.00
2022-08-14T03:33:12.713Z,12.75
2022-08-14T03:36:05.473Z,13.02
2022-08-14T03:39:14.330Z,12.98
2022-08-14T03:41:23.257Z,14.20
2022-08-14T03:44:01.592Z,14.73
2022-08-14T03:46:54.705Z,13.05
2022-08-14T03:49:28.778Z,13.10
2022-08-14T03:52:00.605Z,13.52
2022-08-14T03:54:29.244Z,12.98
2022-08-14T03:57:02.435Z,13.63
2022-08-14T03:59:33.017Z,13.15
2022-08-14T04:02:04.797Z,13.45
2022-08-14T04:04:51.553Z,14.10
2022-08-14T04:07:18.653Z,13.45
2022-08-14T04:09:45.661Z,13.73
2022-08-14T04:12:13.304Z,14.63
2022-08-14T04:14:40.685Z,13.40
2022-08-14T04:17:10.140Z,14.38
2022-08-14T04:19:38.094Z,14.27
2022-08-14T04:22:06.345Z,15.80
2022-08-14T04:24:38.234Z,14.95
2022-08-14T04:27:11.899Z,14.93
2022-08-14T04:29:44.899Z,15.52
2022-08-14T04:33:02.567Z,14.32
2022-08-14T04:35:07.819Z,13.70
2022-08-14T04:37:56.883Z,14.60
2022-08-14T04:40:42.842Z,14.90
2022-08-14T04:43:38.359Z,14.63
2022-08-14T04:46:55.965Z,14.85
2022-08-14T04:49:08.064Z,13.45
2022-08-14T04:51:37.449Z,13.90
2022-08-14T04:54:14.236Z,13.52
2022-08-14T04:56:44.237Z,13.18
2022-08-14T04:59:12.491Z,15.40
2022-08-14T05:01:49.092Z,15.13
2022-08-14T05:04:20.969Z,14.88
2022-08-14T05:06:54.248Z,14.55
2022-08-14T05:09:22.767Z,15.10
2022-08-14T05:11:51.531Z,14.82
2022-08-14T05:14:46.085Z,16.13
2022-08-14T05:17:11.455Z,14.13
2022-08-14T05:19:44.705Z,14.80
2022-08-14T05:22:27.029Z,14.65
2022-08-14T05:24:54.511Z,13.93
2022-08-14T05:27:23.054Z,14.60
2022-08-14T05:29:53.367Z,16.05
2022-08-14T05:32:21.269Z,14.70
2022-08-14T05:34:48.499Z,15.13
2022-08-14T05:37:15.701Z,15.70
2022-08-14T05:39:43.660Z,14.80
2022-08-14T05:42:21.976Z,14.25
2022-08-14T05:44:59.527Z,13.63
2022-08-14T05:47:33.712Z,14.13
2022-08-14T05:50:17.056Z,14.85
2022-08-14T05:52:46.496Z,14.85
2022-08-14T05:55:13.826Z,14.20
2022-08-14T05:58:08.366Z,13.88
2022-08-14T06:00:39.899Z,14.73
2022-08-14T06:03:11.289Z,13.63
2022-08-14T06:05:39.146Z,14.45
2022-08-14T06:08:35.970Z,13.43
2022-08-14T06:11:09.329Z,13.95
2022-08-14T06:13:41.178Z,13.25
2022-08-14T06:16:12.104Z,14.68
2022-08-14T06:18:39.852Z,14.18
2022-08-14T06:35:02.340Z,14.05
2022-08-14T06:36:22.587Z,14.45
2022-08-14T06:38:53.185Z,14.27
2022-08-14T06:41:56.753Z,14.70
2022-08-14T06:44:10.664Z,14.48
2022-08-14T06:46:39.082Z,14.98
2022-08-14T06:49:06.165Z,14.80
2022-08-14T06:51:38.785Z,14.27
2022-08-14T06:54:12.678Z,15.07
2022-08-14T06:56:40.338Z,14.02
2022-08-14T06:59:19.116Z,14.50
2022-08-14T07:02:05.966Z,14.80
2022-08-14T07:04:59.606Z,13.98
2022-08-14T07:15:13.196Z,13.50
2022-08-14T07:17:52.536Z,13.25
2022-08-14T07:20:30.699Z,12.82
2022-08-14T07:23:19.786Z,13.35
2022-08-14T07:25:51.494Z,13.50
2022-08-14T07:31:04.397Z,12.40
2022-08-14T07:33:51.118Z,13.10
2022-08-14T07:36:27.161Z,12.43
2022-08-14T07:39:00.752Z,12.40
2022-08-14T07:41:33.925Z,12.40
2022-08-14T07:57:06.606Z,13.05
2022-08-14T08:02:19.414Z,12.93
2022-08-14T08:10:00.837Z,11.52
2022-08-14T08:12:32.343Z,12.32
2022-08-14T08:15:02.541Z,11.68
2022-08-14T08:17:53.184Z,11.63
2022-08-14T08:20:27.094Z,11.98
2022-08-14T08:23:00.636Z,12.05
2022-08-14T08:25:39.721Z,11.35
2022-08-14T08:28:22.094Z,12.32
2022-08-14T08:36:12.490Z,11.80
2022-08-14T08:39:17.341Z,11.82
2022-08-14T08:41:44.029Z,11.20
2022-08-14T08:44:30.101Z,11.93
2022-08-14T08:47:03.689Z,11.90
2022-08-14T08:49:48.396Z,11.13
2022-08-14T08:52:24.354Z,11.07
2022-08-14T08:54:55.878Z,11.35
2022-08-14T08:57:24.104Z,11.43
2022-08-14T09:07:27.308Z,11.52
2022-08-14T09:09:59.563Z,11.30
2022-08-14T09:12:32.265Z,11.00
2022-08-14T09:15:03.561Z,10.77
2022-08-14T09:17:36.680Z,10.77
2022-08-14T09:20:11.360Z,11.30
2022-08-14T09:22:47.279Z,11.18
2022-08-14T09:25:17.299Z,10.55
2022-08-14T09:27:47.459Z,10.45
2022-08-14T09:30:31.315Z,10.43
2022-08-14T09:33:10.836Z,10.35
2022-08-14T09:36:08.130Z,10.38
2022-08-14T09:38:49.656Z,10.43
2022-08-14T09:42:17.493Z,10.38
2022-08-14T09:45:24.352Z,10.10
2022-08-14T09:47:57.402Z,9.38
2022-08-14T09:50:33.389Z,9.88
2022-08-14T09:53:18.084Z,9.57
2022-08-14T10:03:34.742Z,9.18
2022-08-14T10:06:19.383Z,9.93
2022-08-14T10:08:50.951Z,9.25
2022-08-14T10:11:34.841Z,10.02
2022-08-14T10:24:59.897Z,10.52
2022-08-14T10:27:29.160Z,9.32
2022-08-14T10:30:04.526Z,9.57
2022-08-14T10:32:40.118Z,10.20
2022-08-14T10:35:13.704Z,9.80
2022-08-14T10:40:44.789Z,9.60
2022-08-14T10:43:26.430Z,9.10
2022-08-14T10:46:03.742Z,9.02
2022-08-14T10:49:04.529Z,9.48
2022-08-14T10:51:41.662Z,9.20
2022-08-14T10:54:34.978Z,9.95
2022-08-14T10:57:18.823Z,9.48
2022-08-14T10:59:53.992Z,9.20
2022-08-14T11:02:54.245Z,9.43
2022-08-14T11:05:28.438Z,9.20
2022-08-14T11:08:00.871Z,9.23
2022-08-14T11:10:52.728Z,9.32
2022-08-14T11:13:27.385Z,9.75
2022-08-14T11:16:00.739Z,9.25
2022-08-14T11:18:36.075Z,9.55
2022-08-14T11:45:00.686Z,8.55
2022-08-14T11:47:35.044Z,8.40
2022-08-14T11:50:36.070Z,8.48
2022-08-14T11:53:07.782Z,8.00
2022-08-14T11:55:39.549Z,8.35
2022-08-14T11:58:15.659Z,8.20
2022-08-14T12:00:54.737Z,8.45
2022-08-14T12:03:37.676Z,8.18
2022-08-14T12:06:28.959Z,8.15
2022-08-14T12:09:03.770Z,8.13
2022-08-14T12:11:43.957Z,8.43
2022-08-14T12:14:30.825Z,8.52
2022-08-14T12:17:09.647Z,8.27
2022-08-14T12:19:56.422Z,8.30
2022-08-14T12:22:42.333Z,8.13
2022-08-14T12:25:24.958Z,7.75
2022-08-14T12:27:54.741Z,8.00
2022-08-14T12:30:43.326Z,8.20
2022-08-14T12:33:32.974Z,7.45
2022-08-14T12:36:05.620Z,7.85
2022-08-14T12:38:43.900Z,7.80
2022-08-14T12:41:24.127Z,8.38
2022-08-14T12:44:01.987Z,7.93
2022-08-14T12:46:37.825Z,7.55
2022-08-14T12:49:17.113Z,7.57
2022-08-14T12:51:57.974Z,6.95
2022-08-14T13:02:26.502Z,7.25
2022-08-14T14:03:30.168Z,7.75
2022-08-14T14:05:59.949Z,7.40
2022-08-14T14:08:46.599Z,7.55
2022-08-14T14:11:17.341Z,7.65
2022-08-14T14:13:46.487Z,7.60
2022-08-14T14:16:22.138Z,7.78
2022-08-14T14:19:08.995Z,7.45
2022-08-14T14:21:37.026Z,7.50
2022-08-14T14:24:06.343Z,7.53
2022-08-14T14:26:36.136Z,7.17
2022-08-14T14:29:07.604Z,7.72
2022-08-14T14:31:38.948Z,7.68
2022-08-14T14:34:19.965Z,7.38
2022-08-14T14:37:03.294Z,7.07
2022-08-14T14:39:38.040Z,7.38
2022-08-14T14:42:32.334Z,7.22
2022-08-14T14:45:15.692Z,6.95
2022-08-14T14:47:46.906Z,7.82
2022-08-14T14:50:17.092Z,7.82
2022-08-14T14:52:44.604Z,7.25
2022-08-14T14:55:17.076Z,7.25
2022-08-14T14:57:47.317Z,7.22
2022-08-14T15:00:20.803Z,7.38
2022-08-14T15:02:52.057Z,8.02
2022-08-14T15:05:21.715Z,7.70
2022-08-14T15:07:51.214Z,7.65
2022-08-14T15:10:28.349Z,7.85
2022-08-14T15:13:03.532Z,7.43
2022-08-14T15:15:33.454Z,7.38
2022-08-14T15:18:14.965Z,7.45
2022-08-14T15:20:55.167Z,7.28
2022-08-14T15:23:43.514Z,7.20
2022-08-14T15:26:13.361Z,7.40
2022-08-14T15:29:02.785Z,7.47
2022-08-14T15:31:32.172Z,7.07
2022-08-14T15:34:43.882Z,7.85
2022-08-14T15:36:59.499Z,6.75
2022-08-14T15:39:34.143Z,7.18
2022-08-14T15:42:14.998Z,7.10
2022-08-14T15:44:56.854Z,7.40
2022-08-14T15:47:28.489Z,7.47
2022-08-14T15:50:01.427Z,7.65
2022-08-14T15:52:37.165Z,7.65
2022-08-14T15:55:13.155Z,7.70
2022-08-14T15:58:01.482Z,7.45
2022-08-14T16:00:55.191Z,7.30
2022-08-14T16:03:25.358Z,8.32
2022-08-14T16:06:04.499Z,7.90
2022-08-14T16:08:35.732Z,7.38
2022-08-14T16:11:07.857Z,7.60
2022-08-14T16:13:42.949Z,7.35
2022-08-14T16:16:34.769Z,7.47
2022-08-14T16:19:20.081Z,7.07
2022-08-14T16:22:02.007Z,7.43
2022-08-14T16:24:34.816Z,7.60
2022-08-14T16:27:05.184Z,7.43
2022-08-14T16:29:35.945Z,7.43
2022-08-14T16:32:33.453Z,8.45
2022-08-14T16:34:55.685Z,7.55
2022-08-14T16:37:31.170Z,8.00
2022-08-14T16:43:04.447Z,14.05
2022-08-14T16:45:43.803Z,11.05
2022-08-14T16:48:55.009Z,17.48
2022-08-14T16:50:59.149Z,23.17
2022-08-14T16:53:27.997Z,14.25
2022-08-14T16:56:23.610Z,11.23
2022-08-14T16:59:12.247Z,9.40
2022-08-14T17:01:44.318Z,11.07
2022-08-14T17:04:24.742Z,64.35
2022-08-14T17:06:59.532Z,54.70
2022-08-14T17:09:37.146Z,74.15
2022-08-14T18:15:23.755Z,7.45
2022-08-14T18:18:08.762Z,7.63
2022-08-14T18:21:41.309Z,7.85
2022-08-14T18:23:28.297Z,7.78
2022-08-14T18:25:57.702Z,8.27
2022-08-14T18:28:48.085Z,7.70
2022-08-14T18:31:22.634Z,7.97
2022-08-14T18:33:57.805Z,8.20
2022-08-14T18:36:48.081Z,7.85
2022-08-14T18:39:34.830Z,7.97
2022-08-14T18:42:23.664Z,8.57
2022-08-14T18:44:52.672Z,8.32
2022-08-14T18:47:23.418Z,8.10
2022-08-14T18:49:57.773Z,7.93
2022-08-14T18:52:34.536Z,8.65
2022-08-14T18:55:34.074Z,7.55
2022-08-14T18:58:01.553Z,8.25
2022-08-14T19:00:39.945Z,7.53
2022-08-14T19:03:08.689Z,7.97
2022-08-14T19:05:47.405Z,8.70
2022-08-14T19:08:27.027Z,8.20
2022-08-14T19:11:06.625Z,8.30
2022-08-14T19:13:47.999Z,8.47
2022-08-14T19:16:23.035Z,8.40
2022-08-14T19:19:03.842Z,8.02
2022-08-14T19:21:40.947Z,8.05
2022-08-14T19:24:27.604Z,7.63
2022-08-14T19:27:24.769Z,8.52
2022-08-14T19:30:20.272Z,8.43
2022-08-14T19:32:56.999Z,8.43
2022-08-14T19:35:49.009Z,8.73
2022-08-14T19:38:51.790Z,8.35
2022-08-14T19:41:29.941Z,8.85
2022-08-14T19:44:19.218Z,7.80
2022-08-14T19:47:01.131Z,8.63
2022-08-14T19:50:24.519Z,7.95
2022-08-14T19:52:39.491Z,8.70
2022-08-14T19:55:19.909Z,8.80
2022-08-14T19:57:52.154Z,9.52
2022-08-14T20:00:29.482Z,8.63
2022-08-14T20:03:11.226Z,9.25
2022-08-14T20:05:45.802Z,9.68
2022-08-14T20:11:02.482Z,9.18
2022-08-14T20:11:18.857Z,8.75
2022-08-14T20:14:10.433Z,9.15
2022-08-14T20:16:42.765Z,9.50
2022-08-14T20:19:30.079Z,8.43
2022-08-14T20:22:36.972Z,9.27
2022-08-14T20:24:54.626Z,9.23
2022-08-14T20:27:33.397Z,8.75
2022-08-14T20:33:07.333Z,9.48
2022-08-14T20:35:37.017Z,8.90
2022-08-14T20:38:30.539Z,8.88
2022-08-14T20:41:05.690Z,8.57
2022-08-14T20:43:55.874Z,9.00
2022-08-14T20:46:38.682Z,9.10
2022-08-14T20:49:18.550Z,9.15
2022-08-14T20:51:58.968Z,9.40
2022-08-14T20:54:33.387Z,9.25
2022-08-14T20:57:17.945Z,8.98
2022-08-14T20:59:53.284Z,10.00
2022-08-14T21:02:46.349Z,9.40
2022-08-14T21:05:19.531Z,9.80
2022-08-14T21:07:51.039Z,9.43
2022-08-14T21:10:35.374Z,9.85
2022-08-14T21:13:27.602Z,9.50
2022-08-14T21:15:57.291Z,9.30
2022-08-14T21:18:33.119Z,10.32
2022-08-14T21:21:07.769Z,9.27
2022-08-14T21:44:43.057Z,9.48
2022-08-14T21:47:13.336Z,9.65
2022-08-14T21:49:46.149Z,9.80
2022-08-14T21:52:50.677Z,9.77
2022-08-14T23:17:58.995Z,11.27
2022-08-14T23:20:36.484Z,11.65
2022-08-14T23:23:12.934Z,11.32
2022-08-14T23:26:00.218Z,10.75
2022-08-14T23:28:56.946Z,10.50
2022-08-14T23:31:35.622Z,10.98
2022-08-14T23:34:09.469Z,11.60
2022-08-14T23:36:53.015Z,11.00
2022-08-14T23:39:30.832Z,11.00
2022-08-14T23:42:04.718Z,11.00
2022-08-14T23:44:38.213Z,11.43
2022-08-14T23:47:12.188Z,10.55
2022-08-14T23:50:03.465Z,10.98
2022-08-14T23:53:07.365Z,10.57
2022-08-14T23:55:28.959Z,11.18
